createdAt,value
2019-04-28T00:01:22.306Z,12.50
2019-04-28T00:03:52.188Z,12.50
2019-04-28T00:06:22.156Z,12.50
2019-04-28T00:08:52.161Z,12.40
2019-04-28T00:11:22.531Z,12.40
2019-04-28T00:13:53.590Z,12.40
2019-04-28T00:16:24.163Z,12.40
2019-04-28T00:18:54.057Z,12.50
2019-04-28T00:22:01.088Z,12.50
2019-04-28T00:24:41.635Z,12.50
2019-04-28T00:27:14.049Z,12.50
2019-04-28T00:29:46.137Z,12.50
2019-04-28T00:32:15.588Z,12.50
2019-04-28T00:34:45.565Z,12.50
2019-04-28T00:37:25.285Z,12.50
2019-04-28T00:39:55.198Z,12.50
2019-04-28T00:42:25.258Z,12.50
2019-04-28T00:44:55.178Z,12.50
2019-04-28T00:47:25.322Z,12.40
2019-04-28T00:49:55.354Z,12.50
2019-04-28T00:52:25.222Z,12.50
2019-04-28T00:54:55.188Z,12.50
2019-04-28T00:57:25.121Z,12.40
2019-04-28T00:59:58.408Z,12.40
2019-04-28T01:02:41.304Z,12.40
2019-04-28T01:05:13.434Z,12.40
2019-04-28T01:07:43.322Z,12.40
2019-04-28T01:10:14.196Z,12.50
2019-04-28T01:12:46.635Z,12.40
2019-04-28T01:15:33.680Z,12.40
2019-04-28T01:18:12.335Z,12.40
2019-04-28T01:20:42.215Z,12.40
2019-04-28T01:23:12.214Z,12.40
2019-04-28T01:25:42.130Z,12.40
2019-04-28T01:28:12.190Z,12.40
2019-04-28T01:31:16.336Z,12.40
2019-04-28T01:34:05.110Z,12.30
2019-04-28T01:36:36.620Z,12.40
2019-04-28T01:39:07.615Z,12.40
2019-04-28T01:41:39.571Z,12.30
2019-04-28T01:44:10.204Z,12.30
2019-04-28T01:46:40.276Z,12.20
2019-04-28T01:49:10.179Z,12.30
2019-04-28T01:51:41.622Z,12.30
2019-04-28T01:54:14.429Z,12.30
2019-04-28T01:56:44.348Z,12.30
2019-04-28T01:59:14.360Z,12.30
2019-04-28T02:01:44.275Z,12.30
2019-04-28T02:04:14.281Z,12.30
2019-04-28T02:06:44.178Z,12.20
2019-04-28T02:09:16.782Z,12.20
2019-04-28T02:11:46.656Z,12.20
2019-04-28T02:14:16.744Z,12.20
2019-04-28T02:16:46.651Z,12.20
2019-04-28T02:19:16.661Z,12.10
2019-04-28T02:22:20.446Z,12.20
2019-04-28T02:24:50.565Z,12.20
2019-04-28T02:27:21.024Z,12.30
2019-04-28T02:29:51.207Z,12.20
2019-04-28T02:32:24.313Z,12.10
2019-04-28T02:34:52.628Z,12.10
2019-04-28T02:37:22.543Z,12.10
2019-04-28T02:39:52.434Z,12.20
2019-04-28T02:42:22.342Z,12.20
2019-04-28T02:44:52.513Z,12.10
2019-04-28T02:47:22.464Z,12.10
2019-04-28T02:50:00.601Z,12.20
2019-04-28T02:52:46.836Z,12.10
2019-04-28T02:55:16.969Z,12.10
2019-04-28T02:57:46.839Z,12.20
2019-04-28T03:00:17.018Z,12.10
2019-04-28T03:02:47.036Z,12.00
2019-04-28T03:05:17.980Z,12.00
2019-04-28T03:07:47.851Z,12.00
2019-04-28T03:10:17.775Z,12.00
2019-04-28T03:12:47.653Z,12.00
2019-04-28T03:15:20.204Z,11.90
2019-04-28T03:17:52.468Z,11.90
2019-04-28T03:20:21.342Z,11.90
2019-04-28T03:22:52.411Z,11.90
2019-04-28T03:25:41.229Z,11.90
2019-04-28T03:28:30.806Z,11.90
2019-04-28T03:31:36.615Z,11.90
2019-04-28T03:33:47.236Z,11.90
2019-04-28T03:36:15.369Z,11.90
2019-04-28T03:38:43.642Z,11.90
2019-04-28T03:41:13.502Z,11.90
2019-04-28T03:43:43.376Z,11.90
2019-04-28T03:46:21.391Z,11.80
2019-04-28T03:48:51.420Z,11.80
2019-04-28T03:51:21.409Z,11.90
2019-04-28T03:53:51.340Z,11.80
2019-04-28T03:56:22.982Z,11.90
2019-04-28T03:58:52.948Z,11.90
2019-04-28T04:01:22.977Z,11.90
2019-04-28T04:03:52.860Z,11.90
2019-04-28T04:06:22.884Z,11.90
2019-04-28T04:08:52.787Z,11.90
2019-04-28T04:11:35.338Z,11.90
2019-04-28T04:14:33.088Z,11.90
2019-04-28T04:17:11.360Z,11.90
2019-04-28T04:19:41.406Z,12.00
2019-04-28T04:22:11.339Z,12.00
2019-04-28T04:24:41.228Z,12.10
2019-04-28T04:27:11.088Z,12.10
2019-04-28T04:29:43.596Z,12.20
2019-04-28T04:32:22.723Z,12.20
2019-04-28T04:34:44.138Z,12.20
2019-04-28T04:37:14.073Z,12.20
2019-04-28T04:39:43.961Z,12.10
2019-04-28T04:42:13.835Z,12.10
2019-04-28T04:44:43.783Z,12.20
2019-04-28T04:47:13.644Z,12.20
2019-04-28T04:49:43.560Z,12.10
2019-04-28T04:52:13.530Z,12.20
2019-04-28T04:54:43.416Z,12.20
2019-04-28T04:57:13.319Z,12.30
2019-04-28T04:59:43.218Z,12.30
2019-04-28T05:02:34.973Z,12.40
2019-04-28T05:05:26.740Z,12.50
2019-04-28T05:07:56.614Z,12.50
2019-04-28T05:10:26.555Z,12.60
2019-04-28T05:12:56.453Z,12.60
2019-04-28T05:15:26.350Z,12.60
2019-04-28T05:17:56.270Z,12.60
2019-04-28T05:20:26.164Z,12.60
2019-04-28T05:23:05.603Z,12.60
2019-04-28T05:25:41.184Z,12.60
2019-04-28T05:28:11.116Z,12.60
2019-04-28T05:30:42.968Z,12.70
2019-04-28T05:33:30.400Z,12.60
2019-04-28T05:36:02.614Z,12.50
2019-04-28T05:38:30.644Z,12.40
2019-04-28T05:41:02.660Z,12.40
2019-04-28T05:43:32.085Z,12.50
2019-04-28T05:46:01.947Z,12.50
2019-04-28T05:48:43.480Z,12.60
2019-04-28T05:51:16.500Z,12.70
2019-04-28T05:53:54.775Z,12.80
2019-04-28T05:56:39.885Z,12.90
2019-04-28T05:59:30.011Z,12.80
2019-04-28T06:02:08.096Z,12.80
2019-04-28T06:04:37.968Z,12.80
2019-04-28T06:07:23.845Z,13.00
2019-04-28T06:09:55.240Z,13.20
2019-04-28T06:12:25.092Z,13.40
2019-04-28T06:14:55.023Z,13.40
2019-04-28T06:17:24.904Z,13.30
2019-04-28T06:19:54.800Z,13.20
2019-04-28T06:22:24.706Z,13.20
2019-04-28T06:24:54.629Z,13.30
2019-04-28T06:27:24.483Z,13.40
2019-04-28T06:29:54.882Z,13.30
2019-04-28T06:32:24.864Z,13.20
2019-04-28T06:34:54.803Z,13.10
2019-04-28T06:37:24.753Z,13.20
2019-04-28T06:39:54.620Z,13.20
2019-04-28T06:42:24.515Z,13.20
2019-04-28T06:44:54.427Z,13.20
2019-04-28T06:47:24.333Z,13.20
2019-04-28T06:49:54.269Z,13.20
2019-04-28T06:52:24.128Z,13.30
2019-04-28T06:54:54.004Z,13.40
2019-04-28T06:57:23.926Z,13.40
2019-04-28T06:59:54.188Z,13.50
2019-04-28T07:02:24.089Z,13.80
2019-04-28T07:05:01.783Z,14.00
2019-04-28T07:07:25.475Z,14.00
2019-04-28T07:09:55.391Z,14.20
2019-04-28T07:12:25.104Z,14.30
2019-04-28T07:14:55.273Z,14.20
2019-04-28T07:17:24.994Z,14.00
2019-04-28T07:20:13.604Z,13.80
2019-04-28T07:22:43.379Z,13.70
2019-04-28T07:25:13.263Z,13.50
2019-04-28T07:27:42.958Z,13.40
2019-04-28T07:30:14.496Z,13.30
2019-04-28T07:32:44.174Z,13.20
2019-04-28T07:35:13.917Z,13.20
2019-04-28T07:37:44.352Z,13.10
2019-04-28T07:40:14.252Z,13.10
2019-04-28T07:42:44.314Z,13.00
2019-04-28T07:45:14.233Z,13.00
2019-04-28T07:47:43.906Z,13.00
2019-04-28T07:50:13.717Z,13.00
2019-04-28T07:52:51.371Z,12.90
2019-04-28T07:55:21.219Z,13.10
2019-04-28T07:57:50.900Z,13.30
2019-04-28T08:00:27.075Z,13.50
2019-04-28T08:02:56.753Z,13.80
2019-04-28T08:05:26.462Z,14.20
2019-04-28T08:07:56.246Z,14.40
2019-04-28T08:10:25.918Z,14.60
2019-04-28T08:12:55.664Z,14.70
2019-04-28T08:15:25.339Z,14.60
2019-04-28T08:17:55.099Z,14.40
2019-04-28T08:20:24.808Z,14.50
2019-04-28T08:22:54.516Z,14.80
2019-04-28T08:25:24.260Z,15.10
2019-04-28T08:27:53.901Z,15.30
2019-04-28T08:30:23.552Z,15.50
2019-04-28T08:33:21.318Z,15.50
2019-04-28T08:35:51.016Z,15.60
2019-04-28T08:38:20.711Z,15.60
2019-04-28T08:40:50.474Z,15.40
2019-04-28T08:43:20.212Z,15.30
2019-04-28T08:45:49.903Z,15.40
2019-04-28T08:48:19.769Z,15.20
2019-04-28T08:50:51.934Z,15.20
2019-04-28T08:53:21.759Z,15.30
2019-04-28T08:55:51.487Z,15.40
2019-04-28T08:58:22.017Z,15.30
2019-04-28T09:00:51.677Z,15.20
2019-04-28T09:03:21.389Z,15.20
2019-04-28T09:05:51.160Z,15.10
2019-04-28T09:08:20.830Z,14.90
2019-04-28T09:10:50.514Z,14.80
2019-04-28T09:13:20.243Z,14.60
2019-04-28T09:15:50.042Z,14.50
2019-04-28T09:18:19.687Z,14.40
2019-04-28T09:20:49.523Z,14.50
2019-04-28T09:23:19.758Z,14.50
2019-04-28T09:25:49.595Z,14.50
2019-04-28T09:28:19.270Z,14.50
2019-04-28T09:30:49.771Z,14.50
2019-04-28T09:33:19.443Z,14.40
2019-04-28T09:35:49.239Z,14.30
2019-04-28T09:38:18.902Z,14.20
2019-04-28T09:40:48.564Z,14.20
2019-04-28T09:43:25.517Z,14.40
2019-04-28T09:46:18.575Z,14.50
2019-04-28T09:48:48.283Z,14.70
2019-04-28T09:51:19.158Z,14.80
2019-04-28T09:53:48.837Z,14.90
2019-04-28T09:56:18.565Z,15.00
2019-04-28T09:58:48.231Z,14.90
2019-04-28T10:01:17.897Z,14.70
2019-04-28T10:03:47.593Z,14.70
2019-04-28T10:06:17.283Z,14.60
2019-04-28T10:08:46.963Z,14.50
2019-04-28T10:11:29.686Z,14.30
2019-04-28T10:13:48.071Z,14.30
2019-04-28T10:16:17.910Z,14.30
2019-04-28T10:18:47.537Z,14.10
2019-04-28T10:21:17.258Z,14.10
2019-04-28T10:23:46.957Z,14.10
2019-04-28T10:26:16.732Z,14.10
2019-04-28T10:28:46.437Z,14.00
2019-04-28T10:31:16.175Z,14.10
2019-04-28T10:33:48.723Z,14.10
2019-04-28T10:36:18.659Z,14.00
2019-04-28T10:38:49.937Z,14.10
2019-04-28T10:41:33.420Z,14.10
2019-04-28T10:44:03.193Z,14.20
2019-04-28T10:46:32.904Z,14.20
2019-04-28T10:49:02.612Z,14.30
2019-04-28T10:51:32.412Z,14.30
2019-04-28T10:54:02.140Z,14.50
2019-04-28T10:56:31.838Z,14.60
2019-04-28T10:59:01.700Z,14.70
2019-04-28T11:01:31.404Z,14.80
2019-04-28T11:04:04.153Z,14.90
2019-04-28T11:06:33.823Z,15.00
2019-04-28T11:09:30.733Z,15.10
2019-04-28T11:12:02.079Z,15.10
2019-04-28T11:14:31.807Z,15.10
2019-04-28T11:17:04.378Z,15.10
2019-04-28T11:19:34.092Z,15.10
2019-04-28T11:22:03.925Z,15.10
2019-04-28T11:24:33.630Z,15.20
2019-04-28T11:27:03.319Z,15.20
2019-04-28T11:29:32.996Z,15.20
2019-04-28T11:32:06.887Z,15.20
2019-04-28T11:35:00.974Z,15.10
2019-04-28T11:37:31.371Z,14.80
2019-04-28T11:40:02.290Z,14.60
2019-04-28T11:42:31.997Z,14.50
2019-04-28T11:45:01.860Z,14.60
2019-04-28T11:47:31.589Z,14.50
2019-04-28T11:50:05.245Z,14.50
2019-04-28T11:52:35.069Z,14.40
2019-04-28T11:55:07.139Z,14.50
2019-04-28T11:57:36.839Z,14.50
2019-04-28T12:00:16.820Z,14.40
2019-04-28T12:02:49.295Z,14.30
2019-04-28T12:05:28.341Z,14.20
2019-04-28T12:07:52.290Z,14.30
2019-04-28T12:10:26.812Z,14.30
2019-04-28T12:13:15.404Z,14.30
2019-04-28T12:16:20.107Z,14.30
2019-04-28T12:19:06.574Z,14.30
2019-04-28T12:21:36.279Z,14.20
2019-04-28T12:24:07.779Z,14.10
2019-04-28T12:26:37.451Z,14.10
2019-04-28T12:29:08.827Z,14.00
2019-04-28T12:31:38.540Z,14.00
2019-04-28T12:34:09.150Z,14.10
2019-04-28T12:36:38.925Z,14.00
2019-04-28T12:39:11.468Z,14.10
2019-04-28T12:41:41.241Z,14.10
2019-04-28T12:44:10.948Z,14.10
2019-04-28T12:46:40.602Z,14.10
2019-04-28T12:49:19.776Z,14.10
2019-04-28T12:51:49.453Z,14.00
2019-04-28T12:54:20.763Z,13.90
2019-04-28T12:56:50.535Z,13.70
2019-04-28T12:59:25.331Z,13.70
2019-04-28T13:02:28.975Z,13.60
2019-04-28T13:05:01.571Z,13.50
2019-04-28T13:07:31.224Z,13.40
2019-04-28T13:10:00.932Z,13.30
2019-04-28T13:12:30.655Z,13.20
2019-04-28T13:15:00.314Z,13.20
2019-04-28T13:17:30.002Z,13.10
2019-04-28T13:19:59.698Z,13.00
2019-04-28T13:22:29.376Z,12.90
2019-04-28T13:24:59.125Z,12.90
2019-04-28T13:27:28.805Z,12.80
2019-04-28T13:29:58.497Z,12.80
2019-04-28T13:32:28.191Z,12.80
2019-04-28T13:34:57.972Z,12.80
2019-04-28T13:37:27.716Z,12.90
2019-04-28T13:40:03.921Z,12.90
2019-04-28T13:42:33.563Z,12.80
2019-04-28T13:45:06.782Z,12.80
2019-04-28T13:47:36.966Z,12.70
2019-04-28T13:50:16.757Z,12.70
2019-04-28T13:52:46.459Z,12.70
2019-04-28T13:55:41.218Z,12.80
2019-04-28T13:58:12.741Z,12.80
2019-04-28T14:01:04.224Z,12.80
2019-04-28T14:04:01.739Z,12.80
2019-04-28T14:06:32.583Z,12.80
2019-04-28T14:09:02.267Z,12.80
2019-04-28T14:11:32.000Z,12.80
2019-04-28T14:14:02.330Z,12.80
2019-04-28T14:16:32.047Z,12.80
2019-04-28T14:19:01.781Z,12.80
2019-04-28T14:21:31.429Z,12.80
2019-04-28T14:24:01.125Z,12.80
2019-04-28T14:26:30.858Z,12.80
2019-04-28T14:29:00.576Z,12.90
2019-04-28T14:31:30.322Z,12.90
2019-04-28T14:34:01.100Z,12.80
2019-04-28T14:36:41.529Z,12.70
2019-04-28T14:39:02.280Z,12.70
2019-04-28T14:41:32.051Z,12.60
2019-04-28T14:44:01.728Z,12.60
2019-04-28T14:46:31.469Z,12.50
2019-04-28T14:49:01.192Z,12.50
2019-04-28T14:51:30.893Z,12.40
2019-04-28T14:54:00.580Z,12.30
2019-04-28T14:56:30.346Z,12.40
2019-04-28T14:59:00.102Z,12.30
2019-04-28T15:01:57.861Z,12.30
2019-04-28T15:04:45.733Z,12.30
2019-04-28T15:07:17.279Z,12.20
2019-04-28T15:10:08.670Z,12.20
2019-04-28T15:12:38.374Z,12.20
2019-04-28T15:15:09.062Z,12.10
2019-04-28T15:17:38.723Z,12.10
2019-04-28T15:20:08.555Z,12.10
2019-04-28T15:22:41.328Z,12.00
2019-04-28T15:25:11.263Z,11.90
2019-04-28T15:27:41.463Z,11.90
2019-04-28T15:30:11.293Z,12.00
2019-04-28T15:32:41.028Z,12.00
2019-04-28T15:35:12.348Z,12.00
2019-04-28T15:37:42.002Z,12.10
2019-04-28T15:40:12.119Z,12.10
2019-04-28T15:42:41.806Z,12.20
2019-04-28T15:45:11.505Z,12.20
2019-04-28T15:47:41.380Z,12.20
2019-04-28T15:50:11.379Z,12.20
2019-04-28T15:52:43.492Z,12.20
2019-04-28T15:55:15.411Z,12.10
2019-04-28T15:57:45.092Z,12.10
2019-04-28T16:00:15.513Z,12.20
2019-04-28T16:02:45.280Z,12.10
2019-04-28T16:05:15.191Z,12.10
2019-04-28T16:07:44.883Z,12.00
2019-04-28T16:10:14.785Z,12.00
2019-04-28T16:12:44.494Z,12.00
2019-04-28T16:15:14.309Z,12.00
2019-04-28T16:17:44.174Z,12.10
2019-04-28T16:20:14.054Z,12.10
2019-04-28T16:22:43.748Z,12.10
2019-04-28T16:25:13.638Z,12.10
2019-04-28T16:27:43.371Z,12.00
2019-04-28T16:30:13.336Z,12.00
2019-04-28T16:32:43.040Z,12.00
2019-04-28T16:35:15.879Z,11.90
2019-04-28T16:37:45.589Z,12.00
2019-04-28T16:40:15.378Z,12.00
2019-04-28T16:42:47.948Z,12.00
2019-04-28T16:45:18.699Z,12.00
2019-04-28T16:47:48.513Z,12.00
2019-04-28T16:50:18.355Z,12.00
2019-04-28T16:52:48.286Z,12.00
2019-04-28T16:55:21.841Z,11.90
2019-04-28T16:58:10.405Z,11.90
2019-04-28T17:00:57.532Z,12.00
2019-04-28T17:03:28.949Z,12.00
2019-04-28T17:05:58.721Z,11.90
2019-04-28T17:08:28.459Z,11.90
2019-04-28T17:10:58.196Z,11.90
2019-04-28T17:13:27.970Z,11.90
2019-04-28T17:15:57.644Z,11.90
2019-04-28T17:18:28.017Z,11.90
2019-04-28T17:20:57.702Z,11.90
2019-04-28T17:23:27.476Z,11.90
2019-04-28T17:25:57.289Z,11.90
2019-04-28T17:28:27.001Z,11.90
2019-04-28T17:30:56.760Z,12.00
2019-04-28T17:33:26.665Z,12.00
2019-04-28T17:35:56.362Z,12.00
2019-04-28T17:38:26.102Z,12.00
2019-04-28T17:40:55.812Z,12.00
2019-04-28T17:43:25.610Z,11.90
2019-04-28T17:45:55.318Z,11.90
2019-04-28T17:48:30.176Z,12.00
2019-04-28T17:50:59.847Z,12.00
2019-04-28T17:53:29.518Z,11.90
2019-04-28T17:55:59.218Z,11.90
2019-04-28T17:58:28.931Z,11.90
2019-04-28T18:01:18.291Z,11.80
2019-04-28T18:04:00.764Z,11.80
2019-04-28T18:06:31.138Z,11.80
2019-04-28T18:09:00.816Z,11.80
2019-04-28T18:11:30.482Z,11.80
2019-04-28T18:14:00.197Z,11.70
2019-04-28T18:17:00.994Z,11.70
2019-04-28T18:19:34.555Z,11.70
2019-04-28T18:22:04.219Z,11.80
2019-04-28T18:24:34.502Z,11.80
2019-04-28T18:27:04.361Z,11.70
2019-04-28T18:29:34.484Z,11.70
2019-04-28T18:32:32.000Z,11.70
2019-04-28T18:35:16.917Z,11.70
2019-04-28T18:38:03.461Z,11.70
2019-04-28T18:40:50.730Z,11.70
2019-04-28T18:43:45.256Z,11.60
2019-04-28T18:46:16.957Z,11.70
2019-04-28T18:48:46.670Z,11.60
2019-04-28T18:51:16.387Z,11.60
2019-04-28T18:53:46.190Z,11.70
2019-04-28T18:56:15.926Z,11.70
2019-04-28T18:58:45.721Z,11.70
2019-04-28T19:01:25.078Z,11.70
2019-04-28T19:03:54.815Z,11.70
2019-04-28T19:06:24.600Z,11.80
2019-04-28T19:09:02.185Z,11.70
2019-04-28T19:11:37.659Z,11.70
2019-04-28T19:14:32.205Z,11.70
2019-04-28T19:17:19.510Z,11.70
2019-04-28T19:19:49.269Z,11.70
2019-04-28T19:22:18.980Z,11.80
2019-04-28T19:24:48.694Z,11.80
2019-04-28T19:27:18.496Z,11.70
2019-04-28T19:29:48.230Z,11.70
2019-04-28T19:32:18.044Z,11.70
2019-04-28T19:34:47.741Z,11.70
2019-04-28T19:37:17.449Z,11.70
2019-04-28T19:39:47.174Z,11.80
2019-04-28T19:42:16.863Z,11.70
2019-04-28T19:44:46.587Z,11.70
2019-04-28T19:47:16.345Z,11.70
2019-04-28T19:49:46.011Z,11.60
2019-04-28T19:52:15.744Z,11.60
2019-04-28T19:55:08.829Z,11.60
2019-04-28T19:58:03.456Z,11.60
2019-04-28T20:00:38.247Z,11.60
2019-04-28T20:03:07.995Z,11.50
2019-04-28T20:05:37.670Z,11.50
2019-04-28T20:08:07.382Z,11.50
2019-04-28T20:10:37.161Z,11.50
2019-04-28T20:13:06.823Z,11.50
2019-04-28T20:15:36.466Z,11.50
2019-04-28T20:18:06.252Z,11.50
2019-04-28T20:20:35.981Z,11.50
2019-04-28T20:23:05.726Z,11.50
2019-04-28T20:25:35.453Z,11.50
2019-04-28T20:28:05.186Z,11.50
2019-04-28T20:30:34.893Z,11.50
2019-04-28T20:33:07.470Z,11.50
2019-04-28T20:35:39.034Z,11.50
2019-04-28T20:38:21.025Z,11.40
2019-04-28T20:41:08.467Z,11.40
2019-04-28T20:43:38.225Z,11.40
2019-04-28T20:46:07.908Z,11.40
2019-04-28T20:48:37.596Z,11.40
2019-04-28T20:51:07.361Z,11.50
2019-04-28T20:53:37.055Z,11.50
2019-04-28T20:56:06.719Z,11.40
2019-04-28T20:58:36.464Z,11.50
2019-04-28T21:01:06.133Z,11.50
2019-04-28T21:03:38.503Z,11.50
2019-04-28T21:06:07.247Z,11.50
2019-04-28T21:08:36.960Z,11.50
2019-04-28T21:11:06.749Z,11.50
2019-04-28T21:13:36.437Z,11.50
2019-04-28T21:16:06.322Z,11.50
2019-04-28T21:18:36.083Z,11.50
2019-04-28T21:21:05.754Z,11.50
2019-04-28T21:23:35.489Z,11.50
2019-04-28T21:26:05.300Z,11.50
2019-04-28T21:28:35.019Z,11.50
2019-04-28T21:31:04.717Z,11.50
2019-04-28T21:33:34.467Z,11.60
2019-04-28T21:36:04.229Z,11.60
2019-04-28T21:38:33.950Z,11.60
2019-04-28T21:41:03.621Z,11.60
2019-04-28T21:43:51.653Z,11.60
2019-04-28T21:46:51.734Z,11.60
2019-04-28T21:49:26.664Z,11.60
2019-04-28T21:51:56.364Z,11.60
2019-04-28T21:54:26.111Z,11.60
2019-04-28T21:56:55.808Z,11.70
2019-04-28T21:59:25.493Z,11.70
2019-04-28T22:01:55.658Z,11.70
2019-04-28T22:04:25.349Z,11.80
2019-04-28T22:06:55.039Z,11.80
2019-04-28T22:09:25.137Z,11.80
2019-04-28T22:11:54.787Z,11.80
2019-04-28T22:14:24.505Z,11.80
2019-04-28T22:16:54.245Z,11.80
2019-04-28T22:19:23.995Z,11.80
2019-04-28T22:21:53.755Z,11.80
2019-04-28T22:24:32.018Z,11.80
2019-04-28T22:27:01.701Z,11.70
2019-04-28T22:29:31.403Z,11.80
2019-04-28T22:32:01.121Z,11.70
2019-04-28T22:34:30.963Z,11.80
2019-04-28T22:37:00.671Z,11.80
2019-04-28T22:39:30.348Z,11.80
2019-04-28T22:42:00.076Z,11.80
2019-04-28T22:44:29.766Z,11.90
2019-04-28T22:46:59.482Z,11.90
2019-04-28T22:49:29.189Z,11.90
2019-04-28T22:51:58.855Z,11.90
2019-04-28T22:54:40.902Z,11.90
2019-04-28T22:57:28.249Z,11.90
2019-04-28T22:59:58.695Z,11.90
2019-04-28T23:02:28.865Z,11.90
2019-04-28T23:05:01.600Z,11.90
2019-04-28T23:07:31.337Z,12.00
2019-04-28T23:10:01.001Z,12.00
2019-04-28T23:12:30.696Z,12.00
2019-04-28T23:15:00.474Z,11.90
2019-04-28T23:17:30.212Z,11.90
2019-04-28T23:19:59.914Z,12.00
2019-04-28T23:22:46.718Z,12.00
2019-04-28T23:25:09.968Z,12.00
2019-04-28T23:27:39.659Z,12.00
2019-04-28T23:30:10.867Z,11.90
2019-04-28T23:32:40.582Z,11.90
2019-04-28T23:35:10.399Z,12.00
2019-04-28T23:37:40.102Z,12.00
2019-04-28T23:40:09.927Z,12.00
2019-04-28T23:42:47.687Z,12.00
2019-04-28T23:45:17.397Z,12.00
2019-04-28T23:47:47.087Z,12.00
2019-04-28T23:50:19.192Z,12.00
2019-04-28T23:53:00.059Z,12.00
2019-04-28T23:55:29.710Z,11.90
2019-04-28T23:58:01.749Z,11.90
